createdAt,value
2018-04-23T00:00:44.187Z,48.30
2018-04-23T00:03:12.962Z,48.90
2018-04-23T00:05:42.485Z,48.50
2018-04-23T00:08:11.310Z,48.60
2018-04-23T00:10:41.094Z,49.30
2018-04-23T00:13:09.862Z,49.40
2018-04-23T00:15:39.450Z,49.10
2018-04-23T00:18:08.207Z,49.10
2018-04-23T00:20:36.970Z,48.80
2018-04-23T00:23:06.300Z,49.10
2018-04-23T00:25:35.144Z,49.10
2018-04-23T00:28:03.897Z,51.30
2018-04-23T00:30:32.722Z,49.80
2018-04-23T00:33:01.743Z,49.70
2018-04-23T00:35:30.889Z,50.30
2018-04-23T00:37:59.705Z,51.40
2018-04-23T00:40:28.503Z,50.90
2018-04-23T00:42:57.666Z,51.50
2018-04-23T00:45:27.658Z,53.30
2018-04-23T00:47:56.781Z,52.60
2018-04-23T00:50:25.542Z,54.20
2018-04-23T00:53:06.908Z,53.10
2018-04-23T00:55:35.966Z,53.10
2018-04-23T00:58:04.727Z,55.00
2018-04-23T01:00:34.804Z,55.60
2018-04-23T01:03:03.557Z,56.20
2018-04-23T01:05:32.310Z,58.20
2018-04-23T01:08:01.911Z,61.00
2018-04-23T01:10:30.738Z,60.80
2018-04-23T01:12:59.543Z,57.30
2018-04-23T01:15:28.442Z,57.40
2018-04-23T01:17:57.197Z,57.90
2018-04-23T01:20:26.430Z,60.30
2018-04-23T01:22:55.306Z,58.90
2018-04-23T01:25:24.838Z,55.70
2018-04-23T01:27:53.601Z,55.90
2018-04-23T01:30:22.764Z,57.30
2018-04-23T01:32:53.292Z,57.30
2018-04-23T01:35:22.050Z,56.40
2018-04-23T01:37:51.321Z,56.00
2018-04-23T01:40:20.453Z,56.10
2018-04-23T01:42:49.213Z,58.60
2018-04-23T01:45:18.061Z,57.00
2018-04-23T01:47:46.904Z,56.20
2018-04-23T01:50:16.554Z,57.10
2018-04-23T01:52:45.442Z,57.20
2018-04-23T01:55:14.310Z,57.50
2018-04-23T01:57:43.955Z,58.10
2018-04-23T02:00:12.913Z,58.20
2018-04-23T02:02:42.202Z,57.80
2018-04-23T02:05:11.419Z,57.80
2018-04-23T02:07:41.537Z,60.20
2018-04-23T02:10:11.191Z,58.00
2018-04-23T02:12:40.123Z,58.00
2018-04-23T02:15:09.551Z,58.40
2018-04-23T02:17:39.323Z,60.50
2018-04-23T02:20:09.372Z,61.50
2018-04-23T02:22:38.628Z,61.50
2018-04-23T02:25:07.595Z,59.80
2018-04-23T02:27:36.857Z,59.60
2018-04-23T02:30:06.721Z,60.80
2018-04-23T02:32:35.931Z,61.10
2018-04-23T02:35:04.874Z,60.90
2018-04-23T02:37:34.680Z,60.60
2018-04-23T02:40:04.486Z,59.60
2018-04-23T02:42:33.457Z,59.90
2018-04-23T02:45:02.360Z,59.80
2018-04-23T02:47:32.068Z,59.00
2018-04-23T02:50:00.931Z,60.60
2018-04-23T02:52:29.767Z,60.20
2018-04-23T02:54:58.679Z,61.10
2018-04-23T02:57:27.530Z,59.80
2018-04-23T02:59:56.654Z,58.90
2018-04-23T03:02:25.573Z,59.60
2018-04-23T03:04:54.960Z,59.90
2018-04-23T03:07:23.841Z,60.00
2018-04-23T03:09:52.813Z,58.40
2018-04-23T03:12:21.888Z,59.50
2018-04-23T03:14:51.118Z,60.50
2018-04-23T03:17:20.467Z,59.10
2018-04-23T03:19:49.340Z,59.20
2018-04-23T03:22:18.222Z,59.00
2018-04-23T03:24:48.916Z,60.40
2018-04-23T03:27:17.770Z,60.20
2018-04-23T03:29:46.641Z,58.10
2018-04-23T03:32:16.355Z,59.00
2018-04-23T03:34:45.502Z,59.10
2018-04-23T03:37:14.390Z,57.80
2018-04-23T03:39:43.358Z,57.70
2018-04-23T03:42:13.489Z,57.80
2018-04-23T03:44:43.487Z,58.60
2018-04-23T03:47:12.326Z,58.60
2018-04-23T03:49:41.185Z,59.10
2018-04-23T03:52:10.424Z,57.80
2018-04-23T03:54:39.309Z,58.70
2018-04-23T03:57:08.159Z,58.30
2018-04-23T03:59:37.469Z,58.60
2018-04-23T04:02:06.582Z,58.70
2018-04-23T04:04:35.507Z,61.40
2018-04-23T04:07:05.538Z,59.10
2018-04-23T04:09:34.406Z,59.00
2018-04-23T04:12:15.219Z,59.80
2018-04-23T04:14:55.723Z,59.50
2018-04-23T04:17:26.589Z,59.70
2018-04-23T04:19:56.474Z,58.90
2018-04-23T04:22:26.153Z,59.00
2018-04-23T04:24:55.104Z,59.40
2018-04-23T04:27:24.936Z,58.80
2018-04-23T04:29:54.324Z,57.90
2018-04-23T04:32:23.157Z,57.70
2018-04-23T04:34:51.912Z,58.10
2018-04-23T04:37:21.486Z,59.40
2018-04-23T04:39:50.391Z,59.60
2018-04-23T04:42:19.175Z,59.30
2018-04-23T04:44:48.025Z,58.30
2018-04-23T04:47:16.872Z,58.70
2018-04-23T04:49:45.698Z,57.80
2018-04-23T04:52:14.538Z,58.40
2018-04-23T04:54:43.395Z,58.10
2018-04-23T04:57:12.218Z,59.60
2018-04-23T04:59:41.216Z,60.90
2018-04-23T05:02:11.133Z,60.40
2018-04-23T05:04:40.395Z,61.10
2018-04-23T05:07:09.516Z,60.90
2018-04-23T05:09:38.406Z,59.80
2018-04-23T05:12:07.158Z,60.30
2018-04-23T05:14:36.187Z,60.60
2018-04-23T05:17:05.185Z,60.00
2018-04-23T05:19:34.086Z,61.00
2018-04-23T05:22:02.850Z,60.30
2018-04-23T05:24:32.458Z,59.30
2018-04-23T05:27:01.462Z,59.40
2018-04-23T05:29:30.786Z,60.30
2018-04-23T05:31:59.757Z,59.70
2018-04-23T05:34:29.791Z,59.30
2018-04-23T05:36:58.663Z,59.50
2018-04-23T05:39:28.920Z,58.50
2018-04-23T05:41:57.763Z,58.50
2018-04-23T05:44:26.829Z,58.90
2018-04-23T05:46:55.732Z,58.30
2018-04-23T05:49:24.595Z,57.50
2018-04-23T05:51:54.464Z,57.40
2018-04-23T05:54:23.413Z,57.40
2018-04-23T05:56:52.391Z,56.70
2018-04-23T05:59:22.064Z,56.80
2018-04-23T06:01:50.900Z,56.90
2018-04-23T06:04:20.543Z,56.60
2018-04-23T06:06:49.551Z,56.50
2018-04-23T06:09:19.331Z,55.90
2018-04-23T06:11:48.198Z,55.70
2018-04-23T06:14:17.625Z,55.60
2018-04-23T06:16:47.254Z,55.00
2018-04-23T06:19:16.189Z,55.20
2018-04-23T06:21:45.315Z,54.90
2018-04-23T06:24:14.595Z,55.00
2018-04-23T06:26:43.566Z,55.10
2018-04-23T06:29:12.432Z,55.10
2018-04-23T06:31:41.656Z,54.50
2018-04-23T06:34:10.598Z,54.60
2018-04-23T06:36:40.329Z,54.50
2018-04-23T06:39:09.702Z,54.10
2018-04-23T06:41:38.980Z,53.90
2018-04-23T06:44:07.852Z,54.20
2018-04-23T06:46:36.705Z,53.70
2018-04-23T06:49:05.619Z,53.80
2018-04-23T06:51:34.469Z,53.70
2018-04-23T06:54:03.339Z,53.40
2018-04-23T06:56:32.348Z,53.40
2018-04-23T06:59:01.301Z,53.20
2018-04-23T07:01:30.207Z,53.40
2018-04-23T07:03:59.877Z,52.00
2018-04-23T07:06:28.754Z,51.90
2018-04-23T07:08:58.528Z,52.10
2018-04-23T07:11:28.202Z,51.80
2018-04-23T07:13:57.034Z,51.80
2018-04-23T07:16:26.149Z,51.40
2018-04-23T07:18:55.497Z,51.00
2018-04-23T07:21:25.090Z,50.00
2018-04-23T07:23:53.948Z,50.00
2018-04-23T07:26:23.285Z,49.80
2018-04-23T07:28:52.123Z,49.30
2018-04-23T07:31:20.996Z,47.60
2018-04-23T07:33:49.924Z,48.30
2018-04-23T07:36:19.102Z,47.80
2018-04-23T07:38:47.957Z,48.30
2018-04-23T07:41:16.898Z,47.70
2018-04-23T07:43:45.771Z,47.20
2018-04-23T07:46:14.653Z,47.90
2018-04-23T07:48:43.562Z,46.70
2018-04-23T07:51:12.417Z,47.30
2018-04-23T07:53:41.505Z,46.50
2018-04-23T07:56:10.798Z,47.10
2018-04-23T07:58:40.454Z,47.40
2018-04-23T08:01:09.537Z,47.40
2018-04-23T08:03:38.830Z,45.70
2018-04-23T08:06:08.454Z,46.70
2018-04-23T08:08:38.573Z,45.20
2018-04-23T08:11:07.799Z,45.00
2018-04-23T08:13:36.688Z,46.10
2018-04-23T08:16:05.763Z,46.50
2018-04-23T08:18:34.739Z,46.70
2018-04-23T08:21:03.747Z,45.50
2018-04-23T08:23:34.486Z,45.20
2018-04-23T08:26:04.104Z,45.50
2018-04-23T08:28:33.859Z,45.60
2018-04-23T08:31:03.496Z,44.80
2018-04-23T08:33:32.439Z,44.60
2018-04-23T08:36:01.415Z,45.00
2018-04-23T08:38:31.032Z,45.00
2018-04-23T08:41:00.688Z,45.20
2018-04-23T08:43:29.623Z,45.20
2018-04-23T08:45:58.523Z,45.30
2018-04-23T08:48:27.368Z,45.10
2018-04-23T08:50:56.315Z,45.60
2018-04-23T08:53:25.945Z,46.30
2018-04-23T08:55:55.607Z,46.20
2018-04-23T08:58:25.065Z,46.20
2018-04-23T09:00:53.938Z,46.00
2018-04-23T09:03:22.810Z,46.70
2018-04-23T09:05:51.750Z,46.70
2018-04-23T09:08:21.416Z,46.70
2018-04-23T09:10:50.661Z,46.70
2018-04-23T09:13:19.978Z,46.60
2018-04-23T09:15:48.868Z,46.90
2018-04-23T09:18:18.174Z,46.90
2018-04-23T09:20:47.465Z,47.20
2018-04-23T09:23:17.126Z,47.90
2018-04-23T09:25:45.969Z,48.00
2018-04-23T09:28:15.663Z,49.10
2018-04-23T09:30:45.557Z,49.20
2018-04-23T09:33:14.462Z,49.30
2018-04-23T09:35:43.403Z,49.30
2018-04-23T09:38:13.390Z,50.00
2018-04-23T09:40:42.230Z,50.20
2018-04-23T09:43:11.429Z,50.40
2018-04-23T09:45:41.460Z,52.10
2018-04-23T09:48:10.235Z,52.50
2018-04-23T09:50:39.894Z,53.30
2018-04-23T09:53:08.654Z,53.50
2018-04-23T09:55:37.419Z,54.60
2018-04-23T09:58:06.250Z,55.30
2018-04-23T10:00:35.150Z,55.10
2018-04-23T10:03:10.011Z,56.20
2018-04-23T10:05:39.271Z,56.30
2018-04-23T10:08:08.026Z,57.80
2018-04-23T10:10:37.228Z,57.50
2018-04-23T10:13:06.378Z,58.50
2018-04-23T10:15:35.144Z,58.80
2018-04-23T10:18:04.923Z,61.00
2018-04-23T10:20:33.723Z,61.30
2018-04-23T10:23:02.829Z,60.00
2018-04-23T10:25:31.654Z,60.40
2018-04-23T10:28:00.434Z,62.10
2018-04-23T10:30:29.970Z,61.30
2018-04-23T10:32:58.825Z,61.60
2018-04-23T10:35:27.592Z,62.00
2018-04-23T10:37:56.724Z,62.10
2018-04-23T10:40:25.550Z,62.00
2018-04-23T10:42:54.315Z,62.30
2018-04-23T10:45:23.883Z,62.70
2018-04-23T10:47:52.742Z,62.80
2018-04-23T10:50:21.510Z,62.10
2018-04-23T10:52:50.727Z,62.50
2018-04-23T10:55:20.344Z,62.50
2018-04-23T10:57:49.114Z,62.80
2018-04-23T11:00:18.728Z,62.80
2018-04-23T11:02:48.356Z,63.60
2018-04-23T11:05:17.126Z,63.90
2018-04-23T11:07:46.293Z,63.70
2018-04-23T11:10:15.506Z,63.50
2018-04-23T11:12:44.342Z,64.40
2018-04-23T11:15:13.522Z,64.50
2018-04-23T11:17:42.838Z,64.90
2018-04-23T11:20:12.370Z,66.90
2018-04-23T11:22:41.274Z,67.30
2018-04-23T11:25:10.198Z,65.80
2018-04-23T11:27:39.225Z,67.70
2018-04-23T11:30:08.007Z,68.00
2018-04-23T11:32:37.941Z,69.70
2018-04-23T11:35:06.702Z,70.40
2018-04-23T11:37:35.791Z,73.70
2018-04-23T11:40:04.667Z,69.80
2018-04-23T11:42:33.443Z,69.60
2018-04-23T11:45:03.486Z,73.60
2018-04-23T11:47:32.326Z,73.50
2018-04-23T11:50:01.125Z,73.50
2018-04-23T11:52:31.019Z,75.90
2018-04-23T11:54:59.854Z,76.20
2018-04-23T11:57:28.990Z,73.40
2018-04-23T11:59:57.751Z,73.40
2018-04-23T12:02:27.853Z,76.80
2018-04-23T12:04:57.001Z,78.00
2018-04-23T12:07:25.761Z,74.80
2018-04-23T12:09:55.373Z,74.80
2018-04-23T12:12:24.903Z,74.90
2018-04-23T12:14:53.670Z,75.50
2018-04-23T12:17:23.258Z,77.50
2018-04-23T12:19:52.019Z,77.20
2018-04-23T12:22:20.774Z,78.50
2018-04-23T12:24:49.602Z,77.20
2018-04-23T12:27:18.360Z,76.80
2018-04-23T12:29:47.886Z,78.20
2018-04-23T12:32:16.743Z,78.80
2018-04-23T12:34:45.849Z,82.70
2018-04-23T12:37:15.626Z,79.60
2018-04-23T12:39:45.253Z,79.80
2018-04-23T12:42:14.019Z,80.80
2018-04-23T12:44:42.826Z,82.70
2018-04-23T12:47:11.658Z,82.60
2018-04-23T12:49:41.194Z,78.60
2018-04-23T12:52:09.963Z,78.90
2018-04-23T12:54:39.594Z,78.00
2018-04-23T12:57:09.641Z,78.70
2018-04-23T12:59:38.397Z,78.90
2018-04-23T13:02:07.994Z,78.00
2018-04-23T13:04:37.525Z,80.80
2018-04-23T13:07:06.283Z,81.30
2018-04-23T13:09:35.357Z,78.80
2018-04-23T13:12:04.490Z,79.20
2018-04-23T13:14:33.711Z,81.80
2018-04-23T13:17:03.030Z,80.00
2018-04-23T13:19:31.793Z,83.00
2018-04-23T13:22:01.410Z,80.80
2018-04-23T13:24:31.022Z,80.90
2018-04-23T13:27:00.249Z,81.30
2018-04-23T13:29:29.076Z,83.10
2018-04-23T13:31:57.902Z,80.50
2018-04-23T13:34:27.162Z,83.20
2018-04-23T13:36:56.413Z,82.40
2018-04-23T13:39:26.026Z,83.30
2018-04-23T13:41:55.552Z,83.40
2018-04-23T13:44:24.676Z,83.40
2018-04-23T13:46:53.514Z,82.40
2018-04-23T13:49:22.282Z,83.50
2018-04-23T13:51:51.057Z,83.40
2018-04-23T13:54:19.895Z,83.50
2018-04-23T13:56:48.658Z,83.00
2018-04-23T13:59:17.426Z,85.10
2018-04-23T14:01:46.289Z,82.00
2018-04-23T14:04:15.486Z,84.60
2018-04-23T14:06:45.022Z,86.00
2018-04-23T14:09:13.851Z,85.90
2018-04-23T14:11:43.646Z,84.10
2018-04-23T14:14:12.534Z,84.80
2018-04-23T14:16:41.319Z,82.40
2018-04-23T14:19:10.079Z,85.70
2018-04-23T14:21:39.706Z,84.10
2018-04-23T14:24:09.242Z,84.10
2018-04-23T14:26:38.006Z,84.20
2018-04-23T14:29:06.842Z,84.80
2018-04-23T14:31:35.606Z,86.00
2018-04-23T14:34:04.382Z,84.10
2018-04-23T14:36:34.371Z,84.60
2018-04-23T14:39:03.293Z,85.10
2018-04-23T14:41:32.551Z,84.20
2018-04-23T14:44:01.883Z,85.50
2018-04-23T14:46:31.030Z,87.20
2018-04-23T14:48:59.798Z,84.70
2018-04-23T14:51:29.390Z,85.30
2018-04-23T14:53:58.154Z,85.50
2018-04-23T14:56:26.917Z,84.30
2018-04-23T14:58:55.770Z,83.90
2018-04-23T15:01:24.534Z,81.90
2018-04-23T15:03:53.797Z,80.60
2018-04-23T15:06:22.709Z,80.60
2018-04-23T15:08:51.486Z,80.10
2018-04-23T15:11:21.370Z,77.30
2018-04-23T15:13:50.594Z,77.50
2018-04-23T15:16:19.741Z,76.80
2018-04-23T15:18:48.577Z,75.40
2018-04-23T15:21:18.211Z,74.10
2018-04-23T15:23:48.148Z,73.40
2018-04-23T15:26:16.921Z,74.30
2018-04-23T15:28:46.225Z,72.30
2018-04-23T15:31:15.831Z,71.40
2018-04-23T15:33:45.362Z,69.90
2018-04-23T15:36:14.201Z,69.60
2018-04-23T15:38:43.162Z,69.80
2018-04-23T15:41:12.061Z,68.90
2018-04-23T15:43:41.434Z,68.90
2018-04-23T15:46:11.099Z,68.10
2018-04-23T15:48:39.899Z,67.80
2018-04-23T15:51:08.697Z,68.50
2018-04-23T15:53:38.477Z,66.90
2018-04-23T15:56:07.250Z,67.20
2018-04-23T15:58:36.070Z,66.80
2018-04-23T16:01:05.242Z,67.00
2018-04-23T16:03:34.035Z,66.10
2018-04-23T16:06:02.833Z,66.00
2018-04-23T16:08:31.804Z,65.80
2018-04-23T16:11:01.499Z,64.70
2018-04-23T16:13:30.268Z,64.70
2018-04-23T16:15:59.113Z,64.60
2018-04-23T16:18:28.345Z,63.50
2018-04-23T16:20:58.003Z,61.90
2018-04-23T16:23:26.988Z,61.70
2018-04-23T16:25:56.058Z,61.70
2018-04-23T16:28:24.882Z,60.70
2018-04-23T16:30:53.740Z,60.50
2018-04-23T16:33:22.530Z,60.50
2018-04-23T16:35:51.310Z,60.10
2018-04-23T16:38:20.182Z,60.30
2018-04-23T16:40:49.769Z,58.80
2018-04-23T16:43:18.569Z,58.70
2018-04-23T16:45:47.910Z,57.80
2018-04-23T16:48:16.954Z,58.00
2018-04-23T16:50:45.913Z,58.60
2018-04-23T16:53:14.820Z,59.00
2018-04-23T16:55:43.635Z,59.00
2018-04-23T16:58:12.409Z,58.80
2018-04-23T17:00:41.261Z,59.00
2018-04-23T17:03:10.854Z,58.40
2018-04-23T17:05:39.634Z,58.20
2018-04-23T17:08:08.750Z,58.30
2018-04-23T17:10:37.534Z,58.00
2018-04-23T17:13:06.760Z,58.60
2018-04-23T17:15:35.958Z,57.70
2018-04-23T17:18:05.586Z,57.60
2018-04-23T17:20:34.681Z,57.50
2018-04-23T17:23:04.469Z,57.50
2018-04-23T17:25:33.687Z,57.30
2018-04-23T17:28:02.541Z,57.80
2018-04-23T17:30:31.962Z,58.00
2018-04-23T17:33:01.915Z,59.20
2018-04-23T17:35:31.093Z,58.50
2018-04-23T17:38:00.232Z,59.00
2018-04-23T17:40:29.307Z,58.90
2018-04-23T17:42:59.053Z,59.10
2018-04-23T17:45:28.064Z,58.80
2018-04-23T17:47:56.996Z,58.70
2018-04-23T17:50:27.105Z,58.70
2018-04-23T17:52:56.249Z,58.90
2018-04-23T17:55:26.521Z,59.20
2018-04-23T17:57:58.593Z,59.30
2018-04-23T18:00:28.541Z,59.50
2018-04-23T18:02:57.693Z,59.70
2018-04-23T18:05:26.578Z,59.90
2018-04-23T18:07:55.653Z,60.00
2018-04-23T18:10:25.839Z,60.30
2018-04-23T18:12:55.893Z,60.40
2018-04-23T18:15:25.940Z,60.70
2018-04-23T18:17:54.869Z,60.80
2018-04-23T18:20:24.128Z,61.10
2018-04-23T18:22:54.867Z,61.30
2018-04-23T18:25:23.896Z,61.30
2018-04-23T18:27:52.797Z,61.60
2018-04-23T18:30:21.792Z,61.70
2018-04-23T18:32:50.782Z,62.10
2018-04-23T18:35:19.648Z,62.10
2018-04-23T18:37:49.286Z,62.70
2018-04-23T18:40:18.273Z,63.50
2018-04-23T18:42:47.093Z,62.80
2018-04-23T18:45:15.873Z,63.00
2018-04-23T18:50:17.172Z,63.60
2018-04-23T18:52:45.942Z,63.90
2018-04-23T18:55:14.713Z,64.10
2018-04-23T18:57:43.582Z,64.10
2018-04-23T19:00:13.118Z,64.80
2018-04-23T19:02:41.946Z,64.90
2018-04-23T19:05:10.915Z,64.20
2018-04-23T19:07:39.715Z,64.30
2018-04-23T19:10:08.930Z,64.50
2018-04-23T19:12:37.792Z,64.70
2018-04-23T19:15:07.139Z,64.80
2018-04-23T19:17:36.223Z,65.10
2018-04-23T19:20:05.124Z,65.80
2018-04-23T19:22:34.008Z,66.80
2018-04-23T19:25:02.843Z,67.20
2018-04-23T19:27:31.752Z,67.20
2018-04-23T19:30:01.478Z,68.50
2018-04-23T19:32:31.119Z,69.30
2018-04-23T19:34:59.978Z,69.50
2018-04-23T19:37:29.514Z,69.80
2018-04-23T19:39:58.292Z,70.10
2018-04-23T19:42:27.991Z,70.10
2018-04-23T19:44:57.534Z,70.30
2018-04-23T19:47:26.310Z,70.50
2018-04-23T19:49:55.409Z,70.60
2018-04-23T19:52:25.395Z,71.10
2018-04-23T19:54:54.304Z,71.80
2018-04-23T19:57:23.305Z,70.40
2018-04-23T19:59:53.250Z,69.90
2018-04-23T20:02:22.154Z,70.00
2018-04-23T20:04:51.145Z,69.50
2018-04-23T20:07:21.246Z,73.10
2018-04-23T20:09:51.596Z,72.50
2018-04-23T20:12:20.617Z,73.70
2018-04-23T20:14:49.631Z,73.00
2018-04-23T20:17:18.696Z,73.40
2018-04-23T20:19:47.794Z,73.40
2018-04-23T20:22:16.730Z,74.30
2018-04-23T20:24:45.952Z,74.50
2018-04-23T20:27:15.669Z,74.20
2018-04-23T20:29:44.599Z,76.50
2018-04-23T20:32:13.525Z,75.80
2018-04-23T20:34:42.435Z,74.30
2018-04-23T20:37:11.362Z,75.80
2018-04-23T20:39:41.172Z,74.90
2018-04-23T20:42:12.775Z,74.00
2018-04-23T20:44:41.869Z,74.20
2018-04-23T20:47:11.540Z,73.70
2018-04-23T20:49:40.512Z,74.00
2018-04-23T20:52:09.791Z,74.40
2018-04-23T20:54:38.731Z,73.40
2018-04-23T20:57:07.918Z,73.20
2018-04-23T20:59:36.879Z,73.10
2018-04-23T21:02:06.036Z,73.10
2018-04-23T21:04:35.734Z,73.00
2018-04-23T21:07:05.403Z,73.20
2018-04-23T21:09:34.496Z,73.00
2018-04-23T21:12:03.542Z,73.10
2018-04-23T21:14:32.556Z,72.70
2018-04-23T21:17:01.893Z,72.50
2018-04-23T21:19:31.433Z,72.30
2018-04-23T21:22:00.580Z,72.50
2018-04-23T21:24:30.593Z,72.60
2018-04-23T21:27:00.574Z,72.40
2018-04-23T21:29:29.481Z,72.50
2018-04-23T21:31:59.187Z,72.50
2018-04-23T21:34:28.010Z,73.50
2018-04-23T21:36:57.200Z,72.50
2018-04-23T21:39:26.068Z,72.70
2018-04-23T21:41:55.804Z,74.10
2018-04-23T21:44:24.725Z,74.40
2018-04-23T21:46:54.396Z,73.10
2018-04-23T21:49:23.975Z,73.30
2018-04-23T21:51:52.898Z,73.40
2018-04-23T21:54:21.840Z,73.30
2018-04-23T21:56:51.461Z,73.10
2018-04-23T21:59:21.269Z,73.80
2018-04-23T22:01:50.914Z,73.00
2018-04-23T22:04:19.827Z,73.40
2018-04-23T22:06:49.568Z,73.40
2018-04-23T22:09:18.518Z,74.50
2018-04-23T22:11:47.645Z,73.20
2018-04-23T22:14:17.007Z,73.10
2018-04-23T22:16:46.794Z,72.60
2018-04-23T22:19:15.850Z,72.70
2018-04-23T22:21:44.759Z,72.50
2018-04-23T22:24:13.903Z,72.40
2018-04-23T22:26:44.022Z,72.40
2018-04-23T22:29:15.889Z,72.50
2018-04-23T22:31:45.674Z,72.20
2018-04-23T22:34:16.508Z,72.30
2018-04-23T22:36:46.382Z,73.20
2018-04-23T22:39:16.390Z,72.60
2018-04-23T22:41:46.135Z,72.70
2018-04-23T22:44:16.054Z,72.90
2018-04-23T22:46:45.005Z,73.00
2018-04-23T22:49:15.044Z,73.10
2018-04-23T22:51:44.352Z,73.60
2018-04-23T22:54:13.376Z,74.30
2018-04-23T22:56:43.046Z,74.70
2018-04-23T22:59:12.642Z,75.10
2018-04-23T23:01:41.540Z,75.50
2018-04-23T23:04:10.552Z,76.30
2018-04-23T23:06:39.744Z,76.00
2018-04-23T23:09:10.312Z,77.00
2018-04-23T23:11:39.266Z,76.90
2018-04-23T23:14:08.377Z,76.50
2018-04-23T23:16:37.181Z,78.40
2018-04-23T23:19:07.660Z,77.50
2018-04-23T23:21:38.553Z,77.50
2018-04-23T23:24:08.318Z,78.00
2018-04-23T23:26:38.239Z,78.70
2018-04-23T23:29:08.861Z,77.20
2018-04-23T23:34:14.222Z,75.80
2018-04-23T23:36:43.184Z,77.10
2018-04-23T23:39:12.425Z,77.10
2018-04-23T23:41:41.504Z,77.10
2018-04-23T23:44:10.408Z,76.70
2018-04-23T23:46:40.256Z,76.80
2018-04-23T23:49:09.212Z,76.70
2018-04-23T23:51:38.458Z,78.30
2018-04-23T23:54:07.842Z,76.60
2018-04-23T23:56:37.107Z,76.40
2018-04-23T23:59:06.765Z,76.80
